sensor_id;sensor_type;location;lat;lon;timestamp;P1;durP1;ratioP1;P2;durP2;ratioP2
2868;SDS011;1442;47.448;8.582;2023-04-07T00:01:41;6.70;;;3.70;;
2868;SDS011;1442;47.448;8.582;2023-04-07T00:04:08;7.32;;;4.07;;
2868;SDS011;1442;47.448;8.582;2023-04-07T00:06:35;9.27;;;4.78;;
2868;SDS011;1442;47.448;8.582;2023-04-07T00:09:03;5.75;;;3.78;;
2868;SDS011;1442;47.448;8.582;2023-04-07T00:11:30;6.15;;;3.75;;
2868;SDS011;1442;47.448;8.582;2023-04-07T00:13:58;5.88;;;3.55;;
2868;SDS011;1442;47.448;8.582;2023-04-07T00:16:25;6.97;;;3.60;;
2868;SDS011;1442;47.448;8.582;2023-04-07T00:18:52;6.72;;;3.85;;
2868;SDS011;1442;47.448;8.582;2023-04-07T00:21:19;4.18;;;3.58;;
2868;SDS011;1442;47.448;8.582;2023-04-07T00:23:47;9.32;;;4.03;;
2868;SDS011;1442;47.448;8.582;2023-04-07T00:26:14;7.45;;;3.53;;
2868;SDS011;1442;47.448;8.582;2023-04-07T00:28:41;6.22;;;3.67;;
2868;SDS011;1442;47.448;8.582;2023-04-07T00:31:09;11.32;;;3.67;;
2868;SDS011;1442;47.448;8.582;2023-04-07T00:33:36;6.75;;;3.65;;
2868;SDS011;1442;47.448;8.582;2023-04-07T00:36:04;7.32;;;4.00;;
2868;SDS011;1442;47.448;8.582;2023-04-07T00:38:31;6.32;;;3.95;;
2868;SDS011;1442;47.448;8.582;2023-04-07T00:40:58;6.15;;;3.88;;
2868;SDS011;1442;47.448;8.582;2023-04-07T00:43:26;5.35;;;3.78;;
2868;SDS011;1442;47.448;8.582;2023-04-07T00:45:53;5.63;;;3.85;;
2868;SDS011;1442;47.448;8.582;2023-04-07T00:48:21;5.93;;;3.58;;
2868;SDS011;1442;47.448;8.582;2023-04-07T00:50:49;7.90;;;3.88;;
2868;SDS011;1442;47.448;8.582;2023-04-07T00:53:16;8.55;;;3.33;;
2868;SDS011;1442;47.448;8.582;2023-04-07T00:55:43;4.55;;;3.30;;
2868;SDS011;1442;47.448;8.582;2023-04-07T00:58:10;6.07;;;3.63;;
2868;SDS011;1442;47.448;8.582;2023-04-07T01:00:40;5.50;;;3.45;;
2868;SDS011;1442;47.448;8.582;2023-04-07T01:03:08;4.38;;;3.13;;
2868;SDS011;1442;47.448;8.582;2023-04-07T01:05:37;7.78;;;3.80;;
2868;SDS011;1442;47.448;8.582;2023-04-07T01:08:07;7.35;;;4.18;;
2868;SDS011;1442;47.448;8.582;2023-04-07T01:10:36;5.40;;;3.47;;
2868;SDS011;1442;47.448;8.582;2023-04-07T01:13:08;6.53;;;3.67;;
2868;SDS011;1442;47.448;8.582;2023-04-07T01:15:39;6.85;;;3.35;;
2868;SDS011;1442;47.448;8.582;2023-04-07T01:18:07;6.35;;;3.47;;
2868;SDS011;1442;47.448;8.582;2023-04-07T01:20:37;7.63;;;3.15;;
2868;SDS011;1442;47.448;8.582;2023-04-07T01:23:06;7.63;;;3.88;;
2868;SDS011;1442;47.448;8.582;2023-04-07T01:25:51;6.55;;;4.10;;
2868;SDS011;1442;47.448;8.582;2023-04-07T01:31:03;8.02;;;3.45;;
2868;SDS011;1442;47.448;8.582;2023-04-07T01:33:31;4.03;;;2.97;;
2868;SDS011;1442;47.448;8.582;2023-04-07T01:35:59;4.95;;;3.05;;
2868;SDS011;1442;47.448;8.582;2023-04-07T01:38:27;4.65;;;2.97;;
2868;SDS011;1442;47.448;8.582;2023-04-07T01:40:55;6.78;;;3.47;;
2868;SDS011;1442;47.448;8.582;2023-04-07T01:43:23;5.60;;;3.25;;
2868;SDS011;1442;47.448;8.582;2023-04-07T01:45:50;4.50;;;2.83;;
2868;SDS011;1442;47.448;8.582;2023-04-07T01:48:19;3.30;;;2.85;;
2868;SDS011;1442;47.448;8.582;2023-04-07T01:50:47;6.93;;;2.95;;
2868;SDS011;1442;47.448;8.582;2023-04-07T01:53:15;6.00;;;3.22;;
2868;SDS011;1442;47.448;8.582;2023-04-07T01:55:42;3.63;;;2.63;;
2868;SDS011;1442;47.448;8.582;2023-04-07T01:58:09;6.10;;;2.92;;
2868;SDS011;1442;47.448;8.582;2023-04-07T02:00:37;8.90;;;3.03;;
2868;SDS011;1442;47.448;8.582;2023-04-07T02:03:04;11.00;;;3.92;;
2868;SDS011;1442;47.448;8.582;2023-04-07T02:05:34;9.95;;;3.67;;
2868;SDS011;1442;47.448;8.582;2023-04-07T02:08:02;4.63;;;3.20;;
2868;SDS011;1442;47.448;8.582;2023-04-07T02:10:30;4.70;;;3.25;;
2868;SDS011;1442;47.448;8.582;2023-04-07T02:12:59;5.90;;;3.22;;
2868;SDS011;1442;47.448;8.582;2023-04-07T02:15:28;5.82;;;3.53;;
2868;SDS011;1442;47.448;8.582;2023-04-07T02:17:56;4.38;;;3.10;;
2868;SDS011;1442;47.448;8.582;2023-04-07T02:20:24;4.40;;;3.08;;
2868;SDS011;1442;47.448;8.582;2023-04-07T02:22:52;4.63;;;3.05;;
2868;SDS011;1442;47.448;8.582;2023-04-07T02:25:23;4.97;;;3.47;;
2868;SDS011;1442;47.448;8.582;2023-04-07T02:27:50;6.97;;;3.38;;
2868;SDS011;1442;47.448;8.582;2023-04-07T02:30:18;7.72;;;4.03;;
2868;SDS011;1442;47.448;8.582;2023-04-07T02:32:45;5.72;;;3.30;;
2868;SDS011;1442;47.448;8.582;2023-04-07T02:35:13;5.45;;;3.20;;
2868;SDS011;1442;47.448;8.582;2023-04-07T02:37:40;5.43;;;3.00;;
2868;SDS011;1442;47.448;8.582;2023-04-07T02:40:09;4.15;;;2.95;;
2868;SDS011;1442;47.448;8.582;2023-04-07T02:42:36;5.10;;;3.10;;
2868;SDS011;1442;47.448;8.582;2023-04-07T02:45:04;6.97;;;3.38;;
2868;SDS011;1442;47.448;8.582;2023-04-07T02:47:31;5.18;;;2.95;;
2868;SDS011;1442;47.448;8.582;2023-04-07T02:49:58;3.92;;;2.90;;
2868;SDS011;1442;47.448;8.582;2023-04-07T02:52:25;5.43;;;3.83;;
2868;SDS011;1442;47.448;8.582;2023-04-07T02:54:52;4.90;;;3.00;;
2868;SDS011;1442;47.448;8.582;2023-04-07T02:57:21;4.28;;;3.55;;
2868;SDS011;1442;47.448;8.582;2023-04-07T02:59:48;4.20;;;2.88;;
2868;SDS011;1442;47.448;8.582;2023-04-07T03:02:15;3.20;;;2.83;;
2868;SDS011;1442;47.448;8.582;2023-04-07T03:04:42;3.58;;;3.00;;
2868;SDS011;1442;47.448;8.582;2023-04-07T03:07:09;4.20;;;2.88;;
2868;SDS011;1442;47.448;8.582;2023-04-07T03:09:37;6.70;;;3.45;;
2868;SDS011;1442;47.448;8.582;2023-04-07T03:12:04;11.70;;;3.35;;
2868;SDS011;1442;47.448;8.582;2023-04-07T03:14:32;5.60;;;3.55;;
2868;SDS011;1442;47.448;8.582;2023-04-07T03:17:00;4.78;;;3.00;;
2868;SDS011;1442;47.448;8.582;2023-04-07T03:19:27;6.28;;;3.05;;
2868;SDS011;1442;47.448;8.582;2023-04-07T03:21:54;5.53;;;3.05;;
2868;SDS011;1442;47.448;8.582;2023-04-07T03:24:21;6.32;;;3.20;;
2868;SDS011;1442;47.448;8.582;2023-04-07T03:26:48;4.35;;;2.92;;
2868;SDS011;1442;47.448;8.582;2023-04-07T03:29:16;6.47;;;2.90;;
2868;SDS011;1442;47.448;8.582;2023-04-07T03:31:44;4.35;;;3.35;;
2868;SDS011;1442;47.448;8.582;2023-04-07T03:34:11;7.60;;;2.78;;
2868;SDS011;1442;47.448;8.582;2023-04-07T03:36:39;4.55;;;3.08;;
2868;SDS011;1442;47.448;8.582;2023-04-07T03:39:06;7.82;;;3.20;;
2868;SDS011;1442;47.448;8.582;2023-04-07T03:41:33;3.92;;;2.90;;
2868;SDS011;1442;47.448;8.582;2023-04-07T03:44:00;4.95;;;2.95;;
2868;SDS011;1442;47.448;8.582;2023-04-07T03:46:27;5.15;;;2.92;;
2868;SDS011;1442;47.448;8.582;2023-04-07T03:48:56;4.90;;;2.88;;
2868;SDS011;1442;47.448;8.582;2023-04-07T03:51:23;5.18;;;2.70;;
2868;SDS011;1442;47.448;8.582;2023-04-07T03:53:51;3.78;;;2.72;;
2868;SDS011;1442;47.448;8.582;2023-04-07T03:56:18;5.45;;;2.90;;
2868;SDS011;1442;47.448;8.582;2023-04-07T03:58:46;4.70;;;2.58;;
2868;SDS011;1442;47.448;8.582;2023-04-07T04:01:13;3.13;;;2.70;;
2868;SDS011;1442;47.448;8.582;2023-04-07T04:03:41;5.70;;;2.70;;
2868;SDS011;1442;47.448;8.582;2023-04-07T04:06:09;3.53;;;2.83;;
2868;SDS011;1442;47.448;8.582;2023-04-07T04:08:36;4.32;;;2.50;;
2868;SDS011;1442;47.448;8.582;2023-04-07T04:11:03;3.97;;;3.20;;
2868;SDS011;1442;47.448;8.582;2023-04-07T04:13:31;5.20;;;3.08;;
2868;SDS011;1442;47.448;8.582;2023-04-07T04:15:58;4.78;;;2.90;;
2868;SDS011;1442;47.448;8.582;2023-04-07T04:18:25;5.43;;;2.80;;
2868;SDS011;1442;47.448;8.582;2023-04-07T04:20:52;3.45;;;3.00;;
2868;SDS011;1442;47.448;8.582;2023-04-07T04:23:20;3.03;;;2.70;;
2868;SDS011;1442;47.448;8.582;2023-04-07T04:25:47;5.30;;;2.70;;
2868;SDS011;1442;47.448;8.582;2023-04-07T04:28:15;4.90;;;2.53;;
2868;SDS011;1442;47.448;8.582;2023-04-07T04:30:42;6.18;;;3.10;;
2868;SDS011;1442;47.448;8.582;2023-04-07T04:33:10;6.10;;;3.85;;
2868;SDS011;1442;47.448;8.582;2023-04-07T04:35:37;3.83;;;2.78;;
2868;SDS011;1442;47.448;8.582;2023-04-07T04:38:04;6.18;;;2.97;;
2868;SDS011;1442;47.448;8.582;2023-04-07T04:40:33;5.57;;;3.03;;
2868;SDS011;1442;47.448;8.582;2023-04-07T04:43:00;6.57;;;3.47;;
2868;SDS011;1442;47.448;8.582;2023-04-07T04:45:30;6.22;;;3.33;;
2868;SDS011;1442;47.448;8.582;2023-04-07T04:47:58;4.47;;;3.22;;
2868;SDS011;1442;47.448;8.582;2023-04-07T04:50:25;5.72;;;3.17;;
2868;SDS011;1442;47.448;8.582;2023-04-07T04:52:52;4.82;;;3.10;;
2868;SDS011;1442;47.448;8.582;2023-04-07T04:55:19;3.60;;;2.72;;
2868;SDS011;1442;47.448;8.582;2023-04-07T04:57:47;4.10;;;2.90;;
2868;SDS011;1442;47.448;8.582;2023-04-07T05:00:15;9.07;;;3.28;;
2868;SDS011;1442;47.448;8.582;2023-04-07T05:02:42;5.22;;;3.25;;
2868;SDS011;1442;47.448;8.582;2023-04-07T05:05:10;6.55;;;3.60;;
2868;SDS011;1442;47.448;8.582;2023-04-07T05:07:37;7.15;;;3.47;;
2868;SDS011;1442;47.448;8.582;2023-04-07T05:10:05;5.78;;;3.63;;
2868;SDS011;1442;47.448;8.582;2023-04-07T05:12:32;3.83;;;2.90;;
2868;SDS011;1442;47.448;8.582;2023-04-07T05:15:01;7.50;;;3.08;;
2868;SDS011;1442;47.448;8.582;2023-04-07T05:17:28;3.53;;;2.95;;
2868;SDS011;1442;47.448;8.582;2023-04-07T05:19:55;4.47;;;3.25;;
2868;SDS011;1442;47.448;8.582;2023-04-07T05:22:22;4.13;;;3.13;;
2868;SDS011;1442;47.448;8.582;2023-04-07T05:24:49;4.50;;;3.22;;
2868;SDS011;1442;47.448;8.582;2023-04-07T05:27:17;4.63;;;2.92;;
2868;SDS011;1442;47.448;8.582;2023-04-07T05:29:44;4.85;;;3.08;;
2868;SDS011;1442;47.448;8.582;2023-04-07T05:32:12;7.97;;;3.15;;
2868;SDS011;1442;47.448;8.582;2023-04-07T05:34:39;4.70;;;3.20;;
2868;SDS011;1442;47.448;8.582;2023-04-07T05:37:06;3.42;;;2.83;;
2868;SDS011;1442;47.448;8.582;2023-04-07T05:39:33;5.75;;;2.75;;
2868;SDS011;1442;47.448;8.582;2023-04-07T05:42:01;3.80;;;2.47;;
2868;SDS011;1442;47.448;8.582;2023-04-07T05:44:28;5.50;;;3.13;;
2868;SDS011;1442;47.448;8.582;2023-04-07T05:46:55;6.25;;;2.90;;
2868;SDS011;1442;47.448;8.582;2023-04-07T05:49:23;5.72;;;3.30;;
2868;SDS011;1442;47.448;8.582;2023-04-07T05:51:50;4.95;;;3.63;;
2868;SDS011;1442;47.448;8.582;2023-04-07T05:54:17;4.63;;;2.92;;
2868;SDS011;1442;47.448;8.582;2023-04-07T05:56:45;4.53;;;2.50;;
2868;SDS011;1442;47.448;8.582;2023-04-07T05:59:12;5.07;;;2.95;;
2868;SDS011;1442;47.448;8.582;2023-04-07T06:01:39;5.55;;;2.65;;
2868;SDS011;1442;47.448;8.582;2023-04-07T06:04:06;5.05;;;3.05;;
2868;SDS011;1442;47.448;8.582;2023-04-07T06:06:35;6.00;;;2.90;;
2868;SDS011;1442;47.448;8.582;2023-04-07T06:09:02;4.68;;;3.10;;
2868;SDS011;1442;47.448;8.582;2023-04-07T06:11:29;4.68;;;3.25;;
2868;SDS011;1442;47.448;8.582;2023-04-07T06:13:56;5.78;;;3.97;;
2868;SDS011;1442;47.448;8.582;2023-04-07T06:16:23;6.90;;;4.22;;
2868;SDS011;1442;47.448;8.582;2023-04-07T06:18:51;7.57;;;3.97;;
2868;SDS011;1442;47.448;8.582;2023-04-07T06:21:18;5.95;;;4.05;;
2868;SDS011;1442;47.448;8.582;2023-04-07T06:23:46;4.15;;;3.10;;
2868;SDS011;1442;47.448;8.582;2023-04-07T06:26:13;6.53;;;3.78;;
2868;SDS011;1442;47.448;8.582;2023-04-07T06:28:40;4.35;;;3.35;;
2868;SDS011;1442;47.448;8.582;2023-04-07T06:31:08;7.10;;;3.90;;
2868;SDS011;1442;47.448;8.582;2023-04-07T06:33:35;4.55;;;2.97;;
2868;SDS011;1442;47.448;8.582;2023-04-07T06:36:02;4.95;;;3.67;;
2868;SDS011;1442;47.448;8.582;2023-04-07T06:38:29;6.50;;;3.50;;
2868;SDS011;1442;47.448;8.582;2023-04-07T06:40:58;6.78;;;3.70;;
2868;SDS011;1442;47.448;8.582;2023-04-07T06:43:25;5.00;;;3.50;;
2868;SDS011;1442;47.448;8.582;2023-04-07T06:45:52;5.13;;;3.70;;
2868;SDS011;1442;47.448;8.582;2023-04-07T06:48:19;7.63;;;3.85;;
2868;SDS011;1442;47.448;8.582;2023-04-07T06:50:47;5.55;;;3.35;;
2868;SDS011;1442;47.448;8.582;2023-04-07T06:53:15;4.80;;;3.20;;
2868;SDS011;1442;47.448;8.582;2023-04-07T06:55:42;5.50;;;3.22;;
2868;SDS011;1442;47.448;8.582;2023-04-07T06:58:10;5.05;;;3.65;;
2868;SDS011;1442;47.448;8.582;2023-04-07T07:00:38;4.65;;;3.47;;
2868;SDS011;1442;47.448;8.582;2023-04-07T07:03:05;5.95;;;3.40;;
2868;SDS011;1442;47.448;8.582;2023-04-07T07:05:32;5.32;;;3.97;;
2868;SDS011;1442;47.448;8.582;2023-04-07T07:07:59;4.10;;;3.28;;
2868;SDS011;1442;47.448;8.582;2023-04-07T07:10:26;5.80;;;3.45;;
2868;SDS011;1442;47.448;8.582;2023-04-07T07:12:53;5.30;;;3.45;;
2868;SDS011;1442;47.448;8.582;2023-04-07T07:15:22;5.03;;;3.42;;
2868;SDS011;1442;47.448;8.582;2023-04-07T07:17:49;4.78;;;3.60;;
2868;SDS011;1442;47.448;8.582;2023-04-07T07:20:16;4.38;;;3.45;;
2868;SDS011;1442;47.448;8.582;2023-04-07T07:22:43;4.82;;;3.30;;
2868;SDS011;1442;47.448;8.582;2023-04-07T07:25:10;4.45;;;3.47;;
2868;SDS011;1442;47.448;8.582;2023-04-07T07:27:37;7.85;;;3.78;;
2868;SDS011;1442;47.448;8.582;2023-04-07T07:30:05;5.97;;;3.38;;
2868;SDS011;1442;47.448;8.582;2023-04-07T07:32:33;4.63;;;3.50;;
2868;SDS011;1442;47.448;8.582;2023-04-07T07:35:01;5.45;;;3.13;;
2868;SDS011;1442;47.448;8.582;2023-04-07T07:37:28;6.70;;;3.53;;
2868;SDS011;1442;47.448;8.582;2023-04-07T07:39:55;5.35;;;3.25;;
2868;SDS011;1442;47.448;8.582;2023-04-07T07:42:22;6.30;;;3.35;;
2868;SDS011;1442;47.448;8.582;2023-04-07T07:44:49;4.55;;;3.53;;
2868;SDS011;1442;47.448;8.582;2023-04-07T07:47:16;4.50;;;3.15;;
2868;SDS011;1442;47.448;8.582;2023-04-07T07:49:45;6.13;;;3.28;;
2868;SDS011;1442;47.448;8.582;2023-04-07T07:52:12;7.07;;;3.47;;
2868;SDS011;1442;47.448;8.582;2023-04-07T07:54:39;5.03;;;3.40;;
2868;SDS011;1442;47.448;8.582;2023-04-07T07:57:06;4.10;;;3.17;;
2868;SDS011;1442;47.448;8.582;2023-04-07T07:59:34;5.55;;;3.00;;
2868;SDS011;1442;47.448;8.582;2023-04-07T08:02:01;5.53;;;3.10;;
2868;SDS011;1442;47.448;8.582;2023-04-07T08:04:28;3.97;;;3.05;;
2868;SDS011;1442;47.448;8.582;2023-04-07T08:06:56;5.15;;;3.10;;
2868;SDS011;1442;47.448;8.582;2023-04-07T08:09:23;5.20;;;3.28;;
2868;SDS011;1442;47.448;8.582;2023-04-07T08:11:51;4.78;;;3.13;;
2868;SDS011;1442;47.448;8.582;2023-04-07T08:14:18;4.82;;;3.53;;
2868;SDS011;1442;47.448;8.582;2023-04-07T08:16:45;4.90;;;3.03;;
2868;SDS011;1442;47.448;8.582;2023-04-07T08:19:13;6.68;;;3.40;;
2868;SDS011;1442;47.448;8.582;2023-04-07T08:21:40;5.95;;;3.47;;
2868;SDS011;1442;47.448;8.582;2023-04-07T08:24:09;5.72;;;4.03;;
2868;SDS011;1442;47.448;8.582;2023-04-07T08:26:36;5.65;;;4.22;;
2868;SDS011;1442;47.448;8.582;2023-04-07T08:29:03;6.28;;;3.97;;
2868;SDS011;1442;47.448;8.582;2023-04-07T08:31:30;4.75;;;4.10;;
2868;SDS011;1442;47.448;8.582;2023-04-07T08:33:57;5.00;;;4.15;;
2868;SDS011;1442;47.448;8.582;2023-04-07T08:36:24;6.85;;;4.20;;
2868;SDS011;1442;47.448;8.582;2023-04-07T08:38:52;9.82;;;4.57;;
2868;SDS011;1442;47.448;8.582;2023-04-07T08:41:20;7.45;;;4.90;;
2868;SDS011;1442;47.448;8.582;2023-04-07T08:43:50;6.78;;;4.15;;
2868;SDS011;1442;47.448;8.582;2023-04-07T08:46:18;11.48;;;4.75;;
2868;SDS011;1442;47.448;8.582;2023-04-07T08:48:48;7.18;;;4.07;;
2868;SDS011;1442;47.448;8.582;2023-04-07T08:51:18;6.50;;;4.10;;
2868;SDS011;1442;47.448;8.582;2023-04-07T08:53:49;6.95;;;4.85;;
2868;SDS011;1442;47.448;8.582;2023-04-07T08:56:17;6.07;;;4.15;;
2868;SDS011;1442;47.448;8.582;2023-04-07T08:58:47;4.93;;;3.60;;
2868;SDS011;1442;47.448;8.582;2023-04-07T09:01:14;5.28;;;3.30;;
2868;SDS011;1442;47.448;8.582;2023-04-07T09:03:42;4.78;;;3.80;;
2868;SDS011;1442;47.448;8.582;2023-04-07T09:06:10;7.60;;;3.72;;
2868;SDS011;1442;47.448;8.582;2023-04-07T09:08:37;4.50;;;3.10;;
2868;SDS011;1442;47.448;8.582;2023-04-07T09:11:04;3.78;;;3.33;;
2868;SDS011;1442;47.448;8.582;2023-04-07T09:13:31;5.00;;;3.35;;
2868;SDS011;1442;47.448;8.582;2023-04-07T09:16:01;8.43;;;3.33;;
2868;SDS011;1442;47.448;8.582;2023-04-07T09:18:28;3.80;;;2.92;;
2868;SDS011;1442;47.448;8.582;2023-04-07T09:20:59;3.75;;;2.75;;
2868;SDS011;1442;47.448;8.582;2023-04-07T09:23:27;3.50;;;2.92;;
2868;SDS011;1442;47.448;8.582;2023-04-07T09:25:55;9.57;;;3.30;;
2868;SDS011;1442;47.448;8.582;2023-04-07T09:28:23;4.68;;;3.20;;
2868;SDS011;1442;47.448;8.582;2023-04-07T09:30:51;3.95;;;2.92;;
2868;SDS011;1442;47.448;8.582;2023-04-07T09:33:26;4.63;;;2.85;;
2868;SDS011;1442;47.448;8.582;2023-04-07T09:35:54;3.97;;;2.63;;
2868;SDS011;1442;47.448;8.582;2023-04-07T09:38:21;3.97;;;2.95;;
2868;SDS011;1442;47.448;8.582;2023-04-07T09:40:48;5.55;;;2.85;;
2868;SDS011;1442;47.448;8.582;2023-04-07T09:43:16;4.15;;;2.95;;
2868;SDS011;1442;47.448;8.582;2023-04-07T09:45:43;4.30;;;3.00;;
2868;SDS011;1442;47.448;8.582;2023-04-07T09:48:17;3.63;;;2.75;;
2868;SDS011;1442;47.448;8.582;2023-04-07T09:50:45;3.20;;;2.53;;
2868;SDS011;1442;47.448;8.582;2023-04-07T09:53:15;3.42;;;2.70;;
2868;SDS011;1442;47.448;8.582;2023-04-07T09:55:43;3.55;;;2.85;;
2868;SDS011;1442;47.448;8.582;2023-04-07T09:58:11;4.40;;;2.45;;
2868;SDS011;1442;47.448;8.582;2023-04-07T10:00:39;7.78;;;3.00;;
2868;SDS011;1442;47.448;8.582;2023-04-07T10:03:07;3.35;;;2.58;;
2868;SDS011;1442;47.448;8.582;2023-04-07T10:05:34;3.67;;;2.53;;
2868;SDS011;1442;47.448;8.582;2023-04-07T10:08:03;3.03;;;2.40;;
2868;SDS011;1442;47.448;8.582;2023-04-07T10:10:31;4.57;;;2.83;;
2868;SDS011;1442;47.448;8.582;2023-04-07T10:12:59;3.10;;;2.80;;
2868;SDS011;1442;47.448;8.582;2023-04-07T10:15:26;3.65;;;2.78;;
2868;SDS011;1442;47.448;8.582;2023-04-07T10:17:53;4.30;;;3.00;;
2868;SDS011;1442;47.448;8.582;2023-04-07T10:20:21;4.25;;;2.28;;
2868;SDS011;1442;47.448;8.582;2023-04-07T10:22:50;5.30;;;3.00;;
2868;SDS011;1442;47.448;8.582;2023-04-07T10:25:20;3.28;;;2.38;;
2868;SDS011;1442;47.448;8.582;2023-04-07T10:27:48;3.40;;;2.40;;
2868;SDS011;1442;47.448;8.582;2023-04-07T10:30:18;2.55;;;2.35;;
2868;SDS011;1442;47.448;8.582;2023-04-07T10:32:46;3.65;;;2.40;;
2868;SDS011;1442;47.448;8.582;2023-04-07T10:35:14;2.60;;;2.28;;
2868;SDS011;1442;47.448;8.582;2023-04-07T10:37:45;3.75;;;2.38;;
2868;SDS011;1442;47.448;8.582;2023-04-07T10:40:33;3.30;;;2.17;;
2868;SDS011;1442;47.448;8.582;2023-04-07T10:43:01;4.65;;;2.53;;
2868;SDS011;1442;47.448;8.582;2023-04-07T10:48:16;3.58;;;2.30;;
2868;SDS011;1442;47.448;8.582;2023-04-07T10:50:43;2.33;;;1.80;;
2868;SDS011;1442;47.448;8.582;2023-04-07T10:53:11;2.28;;;1.90;;
2868;SDS011;1442;47.448;8.582;2023-04-07T10:55:39;2.65;;;2.05;;
2868;SDS011;1442;47.448;8.582;2023-04-07T10:58:20;2.20;;;1.80;;
2868;SDS011;1442;47.448;8.582;2023-04-07T11:03:34;1.80;;;1.67;;
2868;SDS011;1442;47.448;8.582;2023-04-07T11:06:02;1.85;;;1.52;;
2868;SDS011;1442;47.448;8.582;2023-04-07T11:08:32;3.13;;;1.77;;
2868;SDS011;1442;47.448;8.582;2023-04-07T11:11:01;2.63;;;1.52;;
2868;SDS011;1442;47.448;8.582;2023-04-07T11:13:38;2.42;;;1.40;;
2868;SDS011;1442;47.448;8.582;2023-04-07T11:16:06;1.67;;;1.40;;
2868;SDS011;1442;47.448;8.582;2023-04-07T11:18:33;2.75;;;1.40;;
2868;SDS011;1442;47.448;8.582;2023-04-07T11:21:01;2.15;;;1.70;;
2868;SDS011;1442;47.448;8.582;2023-04-07T11:23:36;4.53;;;1.73;;
2868;SDS011;1442;47.448;8.582;2023-04-07T11:26:05;1.60;;;1.50;;
2868;SDS011;1442;47.448;8.582;2023-04-07T11:28:32;1.50;;;1.38;;
2868;SDS011;1442;47.448;8.582;2023-04-07T11:31:00;1.92;;;1.67;;
2868;SDS011;1442;47.448;8.582;2023-04-07T11:33:28;2.47;;;1.70;;
2868;SDS011;1442;47.448;8.582;2023-04-07T11:35:56;1.65;;;1.50;;
2868;SDS011;1442;47.448;8.582;2023-04-07T11:38:24;2.20;;;1.85;;
2868;SDS011;1442;47.448;8.582;2023-04-07T11:40:52;2.80;;;2.40;;
2868;SDS011;1442;47.448;8.582;2023-04-07T11:43:21;4.63;;;2.15;;
2868;SDS011;1442;47.448;8.582;2023-04-07T11:46:04;3.08;;;2.33;;
2868;SDS011;1442;47.448;8.582;2023-04-07T11:48:32;3.92;;;2.47;;
2868;SDS011;1442;47.448;8.582;2023-04-07T11:51:00;3.28;;;2.30;;
2868;SDS011;1442;47.448;8.582;2023-04-07T11:53:28;2.58;;;2.08;;
2868;SDS011;1442;47.448;8.582;2023-04-07T11:56:05;3.15;;;2.22;;
2868;SDS011;1442;47.448;8.582;2023-04-07T11:58:35;2.45;;;2.25;;
2868;SDS011;1442;47.448;8.582;2023-04-07T12:01:04;2.75;;;2.38;;
2868;SDS011;1442;47.448;8.582;2023-04-07T12:03:33;3.13;;;2.50;;
2868;SDS011;1442;47.448;8.582;2023-04-07T12:06:01;3.65;;;2.22;;
2868;SDS011;1442;47.448;8.582;2023-04-07T12:08:38;4.85;;;2.53;;
2868;SDS011;1442;47.448;8.582;2023-04-07T12:11:05;2.38;;;2.17;;
2868;SDS011;1442;47.448;8.582;2023-04-07T12:13:33;2.92;;;2.20;;
2868;SDS011;1442;47.448;8.582;2023-04-07T12:16:01;3.63;;;2.40;;
2868;SDS011;1442;47.448;8.582;2023-04-07T12:18:29;3.58;;;2.45;;
2868;SDS011;1442;47.448;8.582;2023-04-07T12:20:56;4.15;;;2.92;;
2868;SDS011;1442;47.448;8.582;2023-04-07T12:23:23;4.72;;;2.55;;
2868;SDS011;1442;47.448;8.582;2023-04-07T12:25:51;2.58;;;2.13;;
2868;SDS011;1442;47.448;8.582;2023-04-07T12:28:18;2.13;;;2.03;;
2868;SDS011;1442;47.448;8.582;2023-04-07T12:30:45;3.15;;;2.40;;
2868;SDS011;1442;47.448;8.582;2023-04-07T12:33:14;2.55;;;2.13;;
2868;SDS011;1442;47.448;8.582;2023-04-07T12:35:41;5.32;;;2.08;;
2868;SDS011;1442;47.448;8.582;2023-04-07T12:38:08;2.13;;;1.83;;
2868;SDS011;1442;47.448;8.582;2023-04-07T12:40:35;3.40;;;2.08;;
2868;SDS011;1442;47.448;8.582;2023-04-07T12:43:03;2.58;;;2.22;;
2868;SDS011;1442;47.448;8.582;2023-04-07T12:45:30;1.70;;;1.55;;
2868;SDS011;1442;47.448;8.582;2023-04-07T12:47:57;2.45;;;1.90;;
2868;SDS011;1442;47.448;8.582;2023-04-07T12:50:26;1.85;;;1.67;;
2868;SDS011;1442;47.448;8.582;2023-04-07T12:52:54;2.08;;;1.75;;
2868;SDS011;1442;47.448;8.582;2023-04-07T12:55:22;2.17;;;1.83;;
2868;SDS011;1442;47.448;8.582;2023-04-07T12:57:50;2.85;;;1.65;;
2868;SDS011;1442;47.448;8.582;2023-04-07T13:00:17;2.10;;;1.88;;
2868;SDS011;1442;47.448;8.582;2023-04-07T13:02:44;2.53;;;2.00;;
2868;SDS011;1442;47.448;8.582;2023-04-07T13:05:12;1.77;;;1.65;;
2868;SDS011;1442;47.448;8.582;2023-04-07T13:07:40;1.70;;;1.60;;
2868;SDS011;1442;47.448;8.582;2023-04-07T13:10:08;4.05;;;2.20;;
2868;SDS011;1442;47.448;8.582;2023-04-07T13:12:35;2.30;;;2.00;;
2868;SDS011;1442;47.448;8.582;2023-04-07T13:15:04;1.73;;;1.63;;
2868;SDS011;1442;47.448;8.582;2023-04-07T13:17:32;1.80;;;1.63;;
2868;SDS011;1442;47.448;8.582;2023-04-07T13:20:00;1.52;;;1.42;;
2868;SDS011;1442;47.448;8.582;2023-04-07T13:22:27;2.78;;;1.30;;
2868;SDS011;1442;47.448;8.582;2023-04-07T13:24:56;1.33;;;1.20;;
2868;SDS011;1442;47.448;8.582;2023-04-07T13:27:23;1.30;;;1.20;;
2868;SDS011;1442;47.448;8.582;2023-04-07T13:29:51;1.33;;;0.95;;
2868;SDS011;1442;47.448;8.582;2023-04-07T13:32:18;1.50;;;1.40;;
2868;SDS011;1442;47.448;8.582;2023-04-07T13:34:45;0.88;;;0.80;;
2868;SDS011;1442;47.448;8.582;2023-04-07T13:37:12;0.60;;;0.60;;
2868;SDS011;1442;47.448;8.582;2023-04-07T13:39:40;0.60;;;0.60;;
2868;SDS011;1442;47.448;8.582;2023-04-07T13:42:09;0.68;;;0.68;;
2868;SDS011;1442;47.448;8.582;2023-04-07T13:44:36;0.80;;;0.80;;
2868;SDS011;1442;47.448;8.582;2023-04-07T13:47:04;0.68;;;0.63;;
2868;SDS011;1442;47.448;8.582;2023-04-07T13:49:31;0.77;;;0.77;;
2868;SDS011;1442;47.448;8.582;2023-04-07T13:51:59;0.88;;;0.88;;
2868;SDS011;1442;47.448;8.582;2023-04-07T13:54:26;1.63;;;0.82;;
2868;SDS011;1442;47.448;8.582;2023-04-07T13:56:54;0.98;;;0.70;;
2868;SDS011;1442;47.448;8.582;2023-04-07T13:59:22;2.28;;;0.80;;
2868;SDS011;1442;47.448;8.582;2023-04-07T14:01:49;0.70;;;0.70;;
2868;SDS011;1442;47.448;8.582;2023-04-07T14:04:17;0.70;;;0.65;;
2868;SDS011;1442;47.448;8.582;2023-04-07T14:06:44;0.77;;;0.77;;
2868;SDS011;1442;47.448;8.582;2023-04-07T14:09:11;0.70;;;0.70;;
2868;SDS011;1442;47.448;8.582;2023-04-07T14:11:38;1.30;;;0.57;;
2868;SDS011;1442;47.448;8.582;2023-04-07T14:14:05;0.75;;;0.68;;
2868;SDS011;1442;47.448;8.582;2023-04-07T14:16:34;0.80;;;0.80;;
2868;SDS011;1442;47.448;8.582;2023-04-07T14:19:01;0.70;;;0.70;;
2868;SDS011;1442;47.448;8.582;2023-04-07T14:21:28;0.77;;;0.70;;
2868;SDS011;1442;47.448;8.582;2023-04-07T14:23:56;0.63;;;0.63;;
2868;SDS011;1442;47.448;8.582;2023-04-07T14:26:23;0.73;;;0.73;;
2868;SDS011;1442;47.448;8.582;2023-04-07T14:28:50;0.80;;;0.80;;
2868;SDS011;1442;47.448;8.582;2023-04-07T14:31:17;0.75;;;0.75;;
2868;SDS011;1442;47.448;8.582;2023-04-07T14:33:46;0.93;;;0.90;;
2868;SDS011;1442;47.448;8.582;2023-04-07T14:36:13;0.68;;;0.68;;
2868;SDS011;1442;47.448;8.582;2023-04-07T14:38:41;0.88;;;0.88;;
2868;SDS011;1442;47.448;8.582;2023-04-07T14:41:08;0.60;;;0.60;;
2868;SDS011;1442;47.448;8.582;2023-04-07T14:43:35;0.75;;;0.75;;
2868;SDS011;1442;47.448;8.582;2023-04-07T14:46:03;0.80;;;0.80;;
2868;SDS011;1442;47.448;8.582;2023-04-07T14:48:30;2.20;;;0.95;;
2868;SDS011;1442;47.448;8.582;2023-04-07T14:50:59;1.25;;;1.13;;
2868;SDS011;1442;47.448;8.582;2023-04-07T14:53:27;0.90;;;0.90;;
2868;SDS011;1442;47.448;8.582;2023-04-07T14:55:54;1.13;;;0.98;;
2868;SDS011;1442;47.448;8.582;2023-04-07T14:58:21;0.98;;;0.93;;
2868;SDS011;1442;47.448;8.582;2023-04-07T15:00:48;0.80;;;0.80;;
2868;SDS011;1442;47.448;8.582;2023-04-07T15:03:15;0.63;;;0.63;;
2868;SDS011;1442;47.448;8.582;2023-04-07T15:05:42;0.57;;;0.57;;
2868;SDS011;1442;47.448;8.582;2023-04-07T15:08:11;1.13;;;0.90;;
2868;SDS011;1442;47.448;8.582;2023-04-07T15:10:38;1.20;;;1.10;;
2868;SDS011;1442;47.448;8.582;2023-04-07T15:13:05;0.73;;;0.73;;
2868;SDS011;1442;47.448;8.582;2023-04-07T15:15:32;1.13;;;1.00;;
2868;SDS011;1442;47.448;8.582;2023-04-07T15:17:59;0.80;;;0.80;;
2868;SDS011;1442;47.448;8.582;2023-04-07T15:20:27;1.20;;;0.95;;
2868;SDS011;1442;47.448;8.582;2023-04-07T15:22:54;1.35;;;0.70;;
2868;SDS011;1442;47.448;8.582;2023-04-07T15:25:22;0.82;;;0.80;;
2868;SDS011;1442;47.448;8.582;2023-04-07T15:27:49;0.75;;;0.75;;